Time;durP1;ratioP1;P1;durP2;ratioP2;P2;SDS_P1;SDS_P2;PMS_P1;PMS_P2;Temp;Humidity;BMP_temperature;BMP_pressure;BME280_temperature;BME280_humidity;BME280_pressure;Samples;Min_cycle;Max_cycle;Signal;HPM_P1;HPM_P2
2021/11/23 08:08:19;;;;;;;32.80;12.23;;;5.80;99.90;;;;;;4921229;23;20981;-84
2021/11/23 08:10:45;;;;;;;21.90;13.93;;;5.80;99.90;;;;;;4891363;29;20181;-85
2021/11/23 08:13:10;;;;;;;21.90;13.17;;;6.10;99.90;;;;;;4896344;29;20272;-84
2021/11/23 08:15:37;;;;;;;27.47;13.30;;;6.30;99.90;;;;;;4895657;29;20704;-84
2021/11/23 08:18:04;;;;;;;25.33;13.17;;;6.40;99.90;;;;;;4895497;29;20276;-82
2021/11/23 08:20:30;;;;;;;31.47;13.83;;;6.40;99.90;;;;;;4893717;29;20598;-84
2021/11/23 08:22:56;;;;;;;24.40;13.60;;;6.60;99.90;;;;;;4895818;29;20190;-85
2021/11/23 08:25:22;;;;;;;27.30;13.33;;;6.50;99.90;;;;;;4895836;29;20182;-84
2021/11/23 08:27:49;;;;;;;29.53;15.03;;;6.60;99.90;;;;;;4900371;29;20189;-85
2021/11/23 08:30:15;;;;;;;29.13;14.27;;;6.70;99.90;;;;;;4904701;29;20244;-84
2021/11/23 08:32:41;;;;;;;32.43;14.87;;;6.70;99.90;;;;;;4899656;29;20209;-85
2021/11/23 08:35:07;;;;;;;27.07;13.50;;;6.70;99.90;;;;;;4919771;29;20189;-84
2021/11/23 08:37:33;;;;;;;28.70;13.83;;;6.60;99.90;;;;;;4899355;29;20235;-84
2021/11/23 08:39:59;;;;;;;32.23;14.37;;;6.50;99.90;;;;;;4898620;29;20190;-85
2021/11/23 08:42:26;;;;;;;24.57;14.07;;;6.70;99.90;;;;;;4899418;29;20195;-82
2021/11/23 08:44:54;;;;;;;28.27;14.83;;;6.60;99.90;;;;;;4898697;29;20516;-83
2021/11/23 08:47:20;;;;;;;30.67;15.47;;;6.60;99.90;;;;;;4897815;29;20213;-84
2021/11/23 08:49:47;;;;;;;31.17;15.47;;;6.90;99.90;;;;;;4912537;29;20180;-84
2021/11/23 08:52:14;;;;;;;27.67;15.13;;;6.80;99.90;;;;;;4897270;29;20673;-84
2021/11/23 08:54:40;;;;;;;27.10;15.17;;;6.70;99.90;;;;;;4898547;29;20337;-85
2021/11/23 08:57:09;;;;;;;27.67;14.13;;;6.70;99.90;;;;;;4897114;29;20232;-85
2021/11/23 08:59:40;;;;;;;31.60;14.83;;;6.70;99.90;;;;;;4910686;29;20190;-84
2021/11/23 09:02:06;;;;;;;26.27;15.37;;;6.80;99.90;;;;;;4899070;29;20186;-84
2021/11/23 09:04:33;;;;;;;27.97;15.70;;;6.90;99.90;;;;;;4898712;29;20745;-85
2021/11/23 09:07:04;;;;;;;29.83;17.17;;;7.00;99.90;;;;;;4898361;29;20205;-85
2021/11/23 09:09:31;;;;;;;30.07;15.53;;;7.00;99.90;;;;;;4893376;29;20181;-82
2021/11/23 09:12:01;;;;;;;31.63;17.03;;;6.80;99.90;;;;;;4894155;29;20186;-84
2021/11/23 09:14:29;;;;;;;28.43;16.23;;;6.70;99.90;;;;;;4898443;29;20638;-84
2021/11/23 09:16:57;;;;;;;29.67;16.50;;;6.70;99.90;;;;;;4895809;29;20225;-84
2021/11/23 09:19:23;;;;;;;27.67;16.67;;;6.70;99.90;;;;;;4898593;29;20187;-85
2021/11/23 09:21:49;;;;;;;31.50;17.90;;;6.80;99.90;;;;;;4913994;29;20200;-85
2021/11/23 09:24:15;;;;;;;33.17;16.77;;;7.00;99.90;;;;;;4897767;29;20301;-84
2021/11/23 09:26:41;;;;;;;34.70;17.30;;;7.00;99.90;;;;;;4898711;29;20212;-85
2021/11/23 09:29:06;;;;;;;29.17;17.00;;;7.20;99.90;;;;;;4898853;29;20277;-84
2021/11/23 09:31:32;;;;;;;31.00;17.13;;;7.40;99.90;;;;;;4899303;29;20187;-85
2021/11/23 09:34:00;;;;;;;29.43;16.93;;;7.50;99.90;;;;;;4900258;29;20216;-88
2021/11/23 09:36:25;;;;;;;34.87;17.40;;;7.40;99.90;;;;;;4897305;29;20242;-85
2021/11/23 09:38:51;;;;;;;33.53;16.80;;;7.50;99.90;;;;;;4900446;29;20642;-85
2021/11/23 09:41:17;;;;;;;31.33;17.17;;;7.50;99.90;;;;;;4898804;29;20270;-84
2021/11/23 09:43:42;;;;;;;32.00;16.70;;;7.50;99.90;;;;;;4898125;29;20194;-84
2021/11/23 09:46:09;;;;;;;29.53;16.53;;;7.40;99.90;;;;;;4898574;29;20194;-84
2021/11/23 09:48:41;;;;;;;30.30;15.63;;;7.50;99.90;;;;;;4895709;29;20562;-83
2021/11/23 09:51:13;;;;;;;29.53;16.90;;;7.70;99.90;;;;;;4898799;29;20616;-86
2021/11/23 09:53:38;;;;;;;30.80;15.57;;;7.90;99.90;;;;;;4899063;29;20187;-85
2021/11/23 09:56:04;;;;;;;31.23;16.60;;;7.70;99.90;;;;;;4897783;29;20614;-84
2021/11/23 09:58:30;;;;;;;40.03;15.97;;;7.70;99.90;;;;;;4899000;29;20647;-84
2021/11/23 10:01:03;;;;;;;39.00;16.47;;;7.70;99.90;;;;;;4896498;29;20188;-84
2021/11/23 10:03:30;;;;;;;30.70;15.33;;;7.70;99.90;;;;;;4898158;29;20622;-83
2021/11/23 10:06:15;;;;;;;28.93;13.87;;;7.90;99.90;;;;;;4898448;29;20179;-84
2021/11/23 10:08:43;;;;;;;23.80;14.07;;;7.90;99.90;;;;;;4898431;29;20205;-83
2021/11/23 10:11:11;;;;;;;27.30;13.27;;;8.00;99.90;;;;;;4897711;29;20269;-83
2021/11/23 10:13:49;;;;;;;24.40;12.57;;;8.10;99.90;;;;;;4897874;29;20189;-84
2021/11/23 10:16:17;;;;;;;21.93;13.07;;;8.20;99.90;;;;;;4914310;29;20308;-84
2021/11/23 10:18:43;;;;;;;22.37;12.23;;;8.10;99.90;;;;;;4899459;29;20656;-80
2021/11/23 10:21:11;;;;;;;22.67;12.47;;;8.10;99.90;;;;;;4898953;29;20980;-84
2021/11/23 10:23:45;;;;;;;28.57;13.63;;;8.10;99.90;;;;;;4897766;29;20191;-83
2021/11/23 10:26:19;;;;;;;28.13;12.70;;;8.20;99.90;;;;;;4911447;29;20622;-84
2021/11/23 10:28:49;;;;;;;25.33;12.57;;;8.10;99.90;;;;;;4898217;29;20209;-84
2021/11/23 10:31:15;;;;;;;24.87;12.60;;;8.10;99.90;;;;;;4897636;29;20196;-84
2021/11/23 10:33:42;;;;;;;24.37;12.70;;;8.10;99.90;;;;;;4898413;29;20797;-84
2021/11/23 10:36:11;;;;;;;25.10;12.47;;;8.10;99.90;;;;;;4913695;29;20223;-84
2021/11/23 10:38:38;;;;;;;27.77;13.30;;;8.30;99.90;;;;;;4886169;29;20183;-84
2021/11/23 10:41:07;;;;;;;26.87;13.17;;;8.30;99.90;;;;;;4897880;29;20213;-84
2021/11/23 10:43:33;;;;;;;26.77;13.83;;;8.40;99.90;;;;;;4897904;29;20221;-84
2021/11/23 10:45:58;;;;;;;31.17;15.13;;;8.40;99.90;;;;;;4897204;29;20221;-84
2021/11/23 10:48:27;;;;;;;30.30;13.07;;;8.50;99.90;;;;;;4897716;29;20213;-83
2021/11/23 10:51:12;;;;;;;31.80;12.70;;;8.50;99.90;;;;;;4897795;29;20179;-83
2021/11/23 10:53:43;;;;;;;43.23;22.77;;;8.60;99.90;;;;;;4896746;29;20190;-84
2021/11/23 10:56:14;;;;;;;27.07;13.17;;;8.80;99.90;;;;;;4896071;29;20698;-84
2021/11/23 10:58:41;;;;;;;28.00;14.00;;;8.90;99.90;;;;;;4897585;29;20182;-84
2021/11/23 11:01:11;;;;;;;25.47;13.30;;;8.90;99.90;;;;;;4896945;29;20318;-84
2021/11/23 11:03:39;;;;;;;27.80;12.23;;;9.00;99.90;;;;;;4893474;29;20177;-83
2021/11/23 11:06:06;;;;;;;25.97;13.97;;;9.00;99.90;;;;;;4894928;29;20186;-83
2021/11/23 11:08:58;;;;;;;27.17;13.57;;;9.00;99.90;;;;;;4896655;29;20197;-83
2021/11/23 11:11:24;;;;;;;28.43;13.43;;;9.00;99.90;;;;;;4887725;29;20185;-83
2021/11/23 11:13:53;;;;;;;30.57;14.07;;;9.10;99.90;;;;;;4897259;29;20189;-83
2021/11/23 11:16:21;;;;;;;29.27;14.07;;;9.20;99.90;;;;;;4894242;29;20219;-84
2021/11/23 11:19:07;;;;;;;24.30;12.90;;;9.30;99.90;;;;;;4891418;29;20192;-84
2021/11/23 11:21:53;;;;;;;28.90;14.47;;;9.30;99.90;;;;;;4898301;29;20188;-84
2021/11/23 11:24:42;;;;;;;30.87;15.07;;;9.40;99.90;;;;;;4895441;29;20208;-84
2021/11/23 11:27:30;;;;;;;25.80;13.67;;;9.30;99.90;;;;;;4897257;29;20657;-85
2021/11/23 11:30:33;;;;;;;31.47;15.23;;;9.20;99.90;;;;;;4908884;29;20655;-84
2021/11/23 11:33:23;;;;;;;32.47;14.10;;;9.10;99.90;;;;;;4896420;29;20547;-83
2021/11/23 11:35:51;;;;;;;24.13;13.43;;;9.10;99.90;;;;;;4897950;29;20204;-83
2021/11/23 11:38:27;;;;;;;32.20;13.93;;;9.10;99.90;;;;;;4896551;29;20201;-85
2021/11/23 11:41:02;;;;;;;25.97;13.60;;;9.20;99.90;;;;;;4907659;29;20188;-84
2021/11/23 11:43:39;;;;;;;28.63;14.17;;;9.20;99.90;;;;;;4899972;29;20189;-84
2021/11/23 11:46:07;;;;;;;27.40;14.57;;;9.20;99.90;;;;;;4898124;29;20191;-83
2021/11/23 11:48:33;;;;;;;22.60;13.47;;;9.20;99.90;;;;;;4897004;29;20177;-84
2021/11/23 11:51:15;;;;;;;28.23;15.23;;;9.10;99.90;;;;;;4896760;29;20187;-84
2021/11/23 11:53:44;;;;;;;25.80;12.97;;;9.20;99.90;;;;;;4896065;29;20191;-83
2021/11/23 11:56:13;;;;;;;20.13;12.33;;;9.20;99.90;;;;;;4896865;29;20226;-84
2021/11/23 11:58:56;;;;;;;26.07;11.90;;;9.30;99.90;;;;;;4897730;29;20192;-84
2021/11/23 12:01:27;;;;;;;24.83;12.40;;;9.20;99.90;;;;;;4896842;29;20189;-84
2021/11/23 12:04:20;;;;;;;23.40;11.43;;;9.50;99.90;;;;;;4896285;29;20181;-83
2021/11/23 12:06:55;;;;;;;27.27;11.57;;;9.50;99.90;;;;;;4895456;29;20539;-83
2021/11/23 12:09:32;;;;;;;35.30;12.60;;;9.40;99.90;;;;;;4900506;29;20204;-84
2021/11/23 12:12:10;;;;;;;25.33;12.50;;;9.40;99.90;;;;;;4900662;29;20203;-84
2021/11/23 12:14:56;;;;;;;20.10;10.97;;;9.30;99.90;;;;;;4900713;29;20195;-83
2021/11/23 12:17:52;;;;;;;25.33;12.37;;;9.30;99.90;;;;;;4903320;29;20692;-84
2021/11/23 12:20:35;;;;;;;21.80;11.67;;;9.30;99.90;;;;;;4922992;29;20219;-84
2021/11/23 12:23:30;;;;;;;24.10;12.53;;;9.20;99.90;;;;;;4889388;29;20271;-83
2021/11/23 12:26:02;;;;;;;26.97;11.60;;;9.20;99.90;;;;;;4899662;29;20185;-84
2021/11/23 12:28:30;;;;;;;24.60;12.13;;;9.30;99.90;;;;;;4901118;29;20187;-83
2021/11/23 12:30:58;;;;;;;25.90;12.27;;;9.50;99.90;;;;;;4900727;29;20235;-84
2021/11/23 12:33:24;;;;;;;24.57;11.90;;;9.70;99.90;;;;;;4898507;29;20681;-84
2021/11/23 12:35:50;;;;;;;27.73;12.07;;;9.70;99.90;;;;;;4900116;29;20229;-83
2021/11/23 12:38:28;;;;;;;23.17;12.83;;;9.90;99.90;;;;;;4901033;29;20202;-83
2021/11/23 12:40:55;;;;;;;23.60;12.07;;;10.20;99.90;;;;;;4899948;29;20199;-84
2021/11/23 12:43:32;;;;;;;19.43;11.30;;;10.10;99.90;;;;;;4899961;29;20276;-84
2021/11/23 12:45:59;;;;;;;25.30;11.93;;;10.20;99.90;;;;;;4899443;29;20219;-84
2021/11/23 12:48:32;;;;;;;22.77;11.77;;;10.40;99.90;;;;;;4899460;29;20291;-83
2021/11/23 12:50:57;;;;;;;23.83;11.30;;;10.60;99.90;;;;;;4899030;29;20550;-83
2021/11/23 12:53:23;;;;;;;25.40;11.57;;;10.60;99.90;;;;;;4897095;29;20553;-83
2021/11/23 12:55:55;;;;;;;30.80;12.97;;;10.50;99.90;;;;;;4897729;29;20687;-83
2021/11/23 12:58:33;;;;;;;25.00;10.90;;;10.50;99.90;;;;;;4900596;29;20201;-83
2021/11/23 13:01:01;;;;;;;21.57;11.10;;;10.60;99.90;;;;;;4899954;29;20208;-83
2021/11/23 13:03:27;;;;;;;25.50;11.27;;;10.80;99.90;;;;;;4899834;29;20282;-83
2021/11/23 13:05:54;;;;;;;24.67;11.53;;;10.60;99.90;;;;;;4902032;29;20200;-83
2021/11/23 13:08:20;;;;;;;24.80;11.87;;;10.70;99.90;;;;;;4899679;29;20197;-84
2021/11/23 13:10:50;;;;;;;28.97;11.60;;;10.90;99.90;;;;;;4899528;29;20192;-83
2021/11/23 13:13:24;;;;;;;22.40;11.83;;;10.90;99.90;;;;;;4896950;29;20181;-84
2021/11/23 13:15:53;;;;;;;22.57;11.43;;;10.90;99.90;;;;;;4899541;29;20212;-83
2021/11/23 13:18:21;;;;;;;23.53;11.70;;;10.80;99.90;;;;;;4898873;29;20182;-84
2021/11/23 13:20:56;;;;;;;26.97;12.70;;;10.90;99.90;;;;;;4898378;29;20268;-84
2021/11/23 13:23:23;;;;;;;30.33;12.00;;;10.70;99.90;;;;;;4899435;29;20192;-85
2021/11/23 13:25:58;;;;;;;27.47;11.97;;;10.50;99.90;;;;;;4898554;29;20189;-84
2021/11/23 13:28:27;;;;;;;25.07;11.93;;;10.40;99.90;;;;;;4899369;29;20557;-84
2021/11/23 13:30:56;;;;;;;25.93;11.50;;;10.30;99.90;;;;;;4900198;29;20177;-84
2021/11/23 13:33:32;;;;;;;26.97;11.80;;;10.20;99.90;;;;;;4908317;29;20212;-84
2021/11/23 13:36:11;;;;;;;20.50;11.30;;;10.20;99.90;;;;;;4915326;29;20216;-84
2021/11/23 13:38:48;;;;;;;31.40;11.63;;;10.20;99.90;;;;;;4913577;29;20197;-84
2021/11/23 13:41:18;;;;;;;25.87;11.67;;;10.20;99.90;;;;;;4899194;29;20189;-83
2021/11/23 13:43:56;;;;;;;28.23;11.53;;;10.40;99.90;;;;;;4909633;29;20190;-84
2021/11/23 13:46:25;;;;;;;27.40;12.83;;;10.40;99.90;;;;;;4899898;29;20186;-84
2021/11/23 13:49:03;;;;;;;28.33;11.17;;;10.40;99.90;;;;;;4897150;29;20280;-83
2021/11/23 13:51:29;;;;;;;22.13;11.50;;;10.20;99.90;;;;;;4886893;29;20204;-82
2021/11/23 13:54:00;;;;;;;28.27;12.77;;;10.10;99.90;;;;;;4887741;29;20521;-82
2021/11/23 13:56:28;;;;;;;25.23;11.67;;;10.20;99.90;;;;;;4896689;29;20248;-84
2021/11/23 13:58:56;;;;;;;30.43;11.87;;;10.20;99.90;;;;;;4899447;29;20205;-84
2021/11/23 14:01:22;;;;;;;26.43;11.87;;;10.20;99.90;;;;;;4893649;29;20194;-84
2021/11/23 14:04:05;;;;;;;28.87;11.60;;;10.20;99.90;;;;;;4889978;29;20187;-84
2021/11/23 14:06:31;;;;;;;25.47;11.17;;;10.30;99.90;;;;;;4890286;29;20197;-83
2021/11/23 14:09:04;;;;;;;26.07;11.97;;;10.20;99.90;;;;;;4895392;29;20277;-84
2021/11/23 14:11:29;;;;;;;25.50;13.00;;;10.40;99.90;;;;;;4902639;29;20603;-84
2021/11/23 14:14:01;;;;;;;30.63;12.40;;;10.50;99.90;;;;;;4890777;29;20214;-84
2021/11/23 14:16:28;;;;;;;22.03;11.10;;;10.60;99.90;;;;;;4884317;29;20206;-84
2021/11/23 14:18:55;;;;;;;27.27;12.90;;;10.70;99.90;;;;;;4884387;29;20185;-84
2021/11/23 14:21:26;;;;;;;28.13;12.30;;;10.90;99.90;;;;;;4898172;29;20269;-84
2021/11/23 14:23:53;;;;;;;27.80;12.60;;;10.90;99.90;;;;;;4898358;29;20188;-83
2021/11/23 14:26:34;;;;;;;29.63;12.23;;;11.00;99.90;;;;;;4898465;29;20241;-84
2021/11/23 14:29:03;;;;;;;26.57;12.27;;;11.10;99.90;;;;;;4897457;29;20260;-84
2021/11/23 14:31:32;;;;;;;33.43;13.13;;;10.90;99.90;;;;;;4897964;29;20218;-85
2021/11/23 14:34:01;;;;;;;25.37;12.27;;;10.90;99.90;;;;;;4898190;29;20209;-86
2021/11/23 14:36:40;;;;;;;30.23;12.23;;;10.80;99.90;;;;;;4888638;29;20229;-83
2021/11/23 14:39:07;;;;;;;28.20;12.80;;;10.60;99.90;;;;;;4898057;29;20188;-83
2021/11/23 14:41:34;;;;;;;30.93;12.43;;;10.30;99.90;;;;;;4898750;29;20224;-83
2021/11/23 14:44:00;;;;;;;22.57;11.43;;;10.40;99.90;;;;;;4899104;29;20181;-83
2021/11/23 14:46:26;;;;;;;25.37;12.03;;;10.40;99.90;;;;;;4909920;29;20213;-83
2021/11/23 14:48:53;;;;;;;28.23;11.47;;;10.50;99.90;;;;;;4889946;29;20222;-83
2021/11/23 14:51:19;;;;;;;27.73;11.67;;;10.70;99.90;;;;;;4896743;29;20249;-82
2021/11/23 14:53:45;;;;;;;24.03;10.90;;;10.80;99.90;;;;;;4897726;29;20392;-83
2021/11/23 14:56:11;;;;;;;24.13;10.70;;;10.80;99.90;;;;;;4898375;29;20240;-83
2021/11/23 14:58:37;;;;;;;33.13;11.10;;;10.80;99.90;;;;;;4896975;29;20288;-83
2021/11/23 15:01:03;;;;;;;27.87;11.40;;;10.90;99.90;;;;;;4897165;29;20185;-82
2021/11/23 15:03:29;;;;;;;32.80;11.07;;;11.00;99.90;;;;;;4897299;29;20199;-84
2021/11/23 15:05:56;;;;;;;34.67;12.53;;;11.00;99.90;;;;;;4898761;29;20185;-83
2021/11/23 15:08:21;;;;;;;32.80;11.90;;;10.90;99.90;;;;;;4896973;29;20209;-83
2021/11/23 15:10:48;;;;;;;36.03;13.50;;;10.70;99.90;;;;;;4898426;29;20185;-84
2021/11/23 15:13:14;;;;;;;46.33;14.63;;;10.60;99.90;;;;;;4905874;29;20257;-83
2021/11/23 15:15:40;;;;;;;35.07;13.40;;;10.50;99.90;;;;;;4896217;29;20609;-84
2021/11/23 15:18:07;;;;;;;38.07;13.70;;;10.70;99.90;;;;;;4896925;29;20624;-84
2021/11/23 15:20:35;;;;;;;41.83;14.07;;;10.50;99.90;;;;;;4896406;29;20193;-84
2021/11/23 15:23:02;;;;;;;42.93;14.07;;;10.30;99.90;;;;;;4897343;29;20224;-84
2021/11/23 15:25:28;;;;;;;50.80;15.93;;;10.20;99.90;;;;;;4898381;29;20197;-84
2021/11/23 15:27:56;;;;;;;47.70;17.00;;;10.20;99.90;;;;;;4896905;29;20181;-84
2021/11/23 15:30:22;;;;;;;48.57;16.67;;;10.50;99.90;;;;;;4896693;29;20250;-83
2021/11/23 15:32:48;;;;;;;53.00;18.70;;;10.60;99.90;;;;;;4896610;29;20685;-83
2021/11/23 15:35:14;;;;;;;50.93;17.27;;;10.30;99.90;;;;;;4896779;29;20532;-84
2021/11/23 15:37:40;;;;;;;49.07;17.83;;;10.40;99.90;;;;;;4896720;29;20229;-83
2021/11/23 15:40:10;;;;;;;54.70;17.90;;;10.30;99.90;;;;;;4896982;29;20192;-84
2021/11/23 15:42:38;;;;;;;52.77;18.30;;;10.30;99.90;;;;;;4895837;29;20201;-84
2021/11/23 15:45:06;;;;;;;48.37;16.77;;;10.10;99.90;;;;;;4896002;29;20181;-85
2021/11/23 15:47:32;;;;;;;52.40;17.20;;;9.80;99.90;;;;;;4896469;29;20728;-85
2021/11/23 15:49:58;;;;;;;54.83;17.40;;;9.70;99.90;;;;;;4897479;29;20227;-84
2021/11/23 15:52:26;;;;;;;48.77;16.97;;;9.60;99.90;;;;;;4896751;29;20185;-85
2021/11/23 15:54:53;;;;;;;45.13;17.20;;;9.50;99.90;;;;;;4897087;29;20279;-85
2021/11/23 15:57:22;;;;;;;51.27;17.23;;;9.50;99.90;;;;;;4896775;29;20228;-85
2021/11/23 15:59:48;;;;;;;53.83;18.20;;;9.40;99.90;;;;;;4896298;29;20184;-85
2021/11/23 16:02:14;;;;;;;56.90;17.73;;;9.40;99.90;;;;;;4896245;29;20671;-83
2021/11/23 16:04:39;;;;;;;41.77;16.17;;;9.50;99.90;;;;;;4894175;29;20217;-84
2021/11/23 16:49:52;;;;;;;41.37;16.80;;;9.50;99.90;;;;;;4932834;29;20204;-81
2021/11/23 16:52:18;;;;;;;33.53;16.97;;;9.40;99.90;;;;;;4934767;29;20192;-83
2021/11/23 16:54:46;;;;;;;39.77;17.77;;;9.40;99.90;;;;;;4935770;29;20184;-82
2021/11/23 16:57:13;;;;;;;42.40;18.23;;;9.40;99.90;;;;;;4920676;29;20247;-82
2021/11/23 16:59:39;;;;;;;46.90;18.47;;;9.40;99.90;;;;;;4921010;29;20275;-81
2021/11/23 17:02:06;;;;;;;38.20;18.33;;;9.40;99.90;;;;;;4937935;29;20276;-80
2021/11/23 17:04:32;;;;;;;38.90;18.57;;;9.30;99.90;;;;;;4938373;29;20549;-82
2021/11/23 17:06:58;;;;;;;39.93;17.87;;;9.30;99.90;;;;;;4937991;29;20649;-82
2021/11/23 17:09:28;;;;;;;42.27;17.40;;;9.50;99.90;;;;;;4937918;29;20254;-81
2021/11/23 17:11:54;;;;;;;70.00;28.93;;;9.50;99.90;;;;;;4937830;29;20223;-81
2021/11/23 17:14:21;;;;;;;48.10;20.00;;;9.60;99.90;;;;;;4938118;29;20184;-82
2021/11/23 17:16:52;;;;;;;45.50;19.20;;;9.40;99.90;;;;;;4938121;29;20218;-81
2021/11/23 17:19:18;;;;;;;35.70;15.93;;;9.50;99.90;;;;;;4937759;29;20201;-80
2021/11/23 17:21:45;;;;;;;41.10;18.03;;;9.30;99.90;;;;;;4920756;29;20188;-81
2021/11/23 17:24:12;;;;;;;40.93;17.87;;;9.30;99.90;;;;;;4938496;29;20267;-82
2021/11/23 17:26:39;;;;;;;34.50;16.70;;;9.30;99.90;;;;;;4937265;29;20188;-82
2021/11/23 17:29:06;;;;;;;35.17;17.20;;;9.30;99.90;;;;;;4937915;29;20239;-81
2021/11/23 17:31:32;;;;;;;37.73;16.93;;;9.40;99.90;;;;;;4937755;29;20176;-82
2021/11/23 17:33:59;;;;;;;39.63;18.43;;;9.50;99.90;;;;;;4920271;29;20302;-83
2021/11/23 17:36:27;;;;;;;40.83;17.93;;;9.50;99.90;;;;;;4937226;29;20684;-82
2021/11/23 17:38:53;;;;;;;37.07;18.07;;;9.50;99.90;;;;;;4938140;29;20178;-83
2021/11/23 17:41:20;;;;;;;32.67;16.87;;;9.50;99.90;;;;;;4937335;29;20194;-82
2021/11/23 17:43:46;;;;;;;31.33;17.07;;;9.40;99.90;;;;;;4937894;29;20182;-82
2021/11/23 17:46:12;;;;;;;33.40;17.87;;;9.40;99.90;;;;;;4920685;29;20180;-82
2021/11/23 17:48:37;;;;;;;34.87;17.13;;;9.30;99.90;;;;;;4937431;29;20287;-82
2021/11/23 17:51:03;;;;;;;34.07;17.17;;;9.30;99.90;;;;;;4937429;29;20594;-82
2021/11/23 17:53:29;;;;;;;38.80;16.90;;;9.30;99.90;;;;;;4937489;29;20188;-83
2021/11/23 17:55:55;;;;;;;33.13;16.43;;;9.20;99.90;;;;;;4945167;29;20190;-81
2021/11/23 17:58:22;;;;;;;42.33;17.93;;;9.20;99.90;;;;;;4943081;29;20195;-83
2021/11/23 18:00:48;;;;;;;36.77;17.53;;;9.20;99.90;;;;;;4937085;29;20172;-81
2021/11/23 18:03:14;;;;;;;35.33;18.37;;;9.20;99.90;;;;;;4920154;29;20226;-80
2021/11/23 18:05:40;;;;;;;39.97;17.90;;;9.20;99.90;;;;;;4936736;29;20182;-81
2021/11/23 18:21:34;;;;;;;46.33;20.60;;;9.40;99.90;;;;;;4960598;23;20293;-88
2021/11/23 18:24:00;;;;;;;38.00;20.20;;;9.40;99.90;;;;;;4961149;28;20198;-89
2021/11/23 18:26:26;;;;;;;33.43;19.83;;;9.30;99.90;;;;;;4940014;29;20194;-93
2021/11/23 18:28:52;;;;;;;36.87;20.70;;;9.30;99.90;;;;;;4940238;29;20191;-90
2021/11/23 18:31:17;;;;;;;38.37;19.57;;;9.30;99.90;;;;;;4939839;29;20202;-89
2021/11/23 18:33:43;;;;;;;48.37;22.30;;;9.40;99.90;;;;;;4922732;29;20239;-82
2021/11/23 18:36:08;;;;;;;38.37;19.97;;;9.30;99.90;;;;;;4937188;29;20257;-89
2021/11/23 18:38:34;;;;;;;37.60;20.03;;;9.40;99.90;;;;;;4920124;29;20278;-88
2021/11/23 18:41:01;;;;;;;41.23;19.77;;;9.40;99.90;;;;;;4920869;29;20655;-88
2021/11/23 18:43:27;;;;;;;40.03;20.80;;;9.30;99.90;;;;;;4920534;29;20184;-90
2021/11/23 18:45:57;;;;;;;38.47;20.20;;;9.30;99.90;;;;;;4920442;29;20199;-91
2021/11/23 18:48:23;;;;;;;42.70;21.20;;;9.30;99.90;;;;;;4936798;29;20195;-90
2021/11/23 18:50:49;;;;;;;44.90;21.13;;;9.30;99.90;;;;;;4920188;29;20188;-90
2021/11/23 18:53:15;;;;;;;40.47;20.23;;;9.30;99.90;;;;;;4919741;29;20557;-88
2021/11/23 18:55:41;;;;;;;42.80;20.83;;;9.30;99.90;;;;;;4937276;29;20180;-91
2021/11/23 18:58:06;;;;;;;39.07;21.37;;;9.30;99.90;;;;;;4920177;29;20696;-90
2021/11/23 19:00:34;;;;;;;38.97;19.87;;;9.30;99.90;;;;;;4919707;29;20188;-91
2021/11/23 19:03:00;;;;;;;32.37;19.60;;;9.40;99.90;;;;;;4910051;29;20692;-89
2021/11/23 19:05:26;;;;;;;40.57;19.90;;;9.40;99.90;;;;;;4919514;29;20195;-89
2021/11/23 19:07:52;;;;;;;36.63;20.90;;;9.40;99.90;;;;;;4918646;29;20187;-91
2021/11/23 19:10:18;;;;;;;45.97;22.10;;;9.40;99.90;;;;;;4918843;29;20247;-91
2021/11/23 19:12:45;;;;;;;33.20;20.17;;;9.30;99.90;;;;;;4918210;29;20196;-90
2021/11/23 19:15:14;;;;;;;39.57;21.03;;;9.30;99.90;;;;;;4919708;29;20188;-86
2021/11/23 19:17:40;;;;;;;33.90;19.83;;;9.40;99.90;;;;;;4935075;29;20226;-89
2021/11/23 19:20:08;;;;;;;35.67;20.10;;;9.50;99.90;;;;;;4932433;28;20220;-91
2021/11/23 19:22:33;;;;;;;40.87;20.40;;;9.50;99.90;;;;;;4935533;29;20436;-89
2021/11/23 19:25:00;;;;;;;40.10;20.73;;;9.50;99.90;;;;;;4919770;29;20176;-89
2021/11/23 19:27:27;;;;;;;31.40;19.97;;;9.50;99.90;;;;;;4920264;29;20195;-91
2021/11/23 19:29:54;;;;;;;37.43;20.87;;;9.50;99.90;;;;;;4946900;29;20180;-88
2021/11/23 19:32:20;;;;;;;40.33;20.80;;;9.60;99.90;;;;;;4936800;29;20200;-89
2021/11/23 19:34:46;;;;;;;34.73;20.23;;;9.60;99.90;;;;;;4936888;29;20184;-90
2021/11/23 19:37:12;;;;;;;33.63;20.43;;;9.60;99.90;;;;;;4919570;29;20710;-89
2021/11/23 19:39:37;;;;;;;35.30;19.33;;;9.60;99.90;;;;;;4936884;29;20184;-89
2021/11/23 19:42:04;;;;;;;45.17;21.40;;;9.50;99.90;;;;;;4920122;29;20191;-90
2021/11/23 19:44:29;;;;;;;32.03;19.83;;;9.50;99.90;;;;;;4937316;29;20188;-89
2021/11/23 19:46:57;;;;;;;38.27;21.37;;;9.60;99.90;;;;;;4920093;29;20275;-88
2021/11/23 19:49:24;;;;;;;46.10;23.00;;;9.60;99.90;;;;;;4919137;29;20186;-91
2021/11/23 19:51:51;;;;;;;43.90;21.67;;;9.50;99.90;;;;;;4919500;29;20209;-89
2021/11/23 19:54:18;;;;;;;44.50;22.57;;;9.50;99.90;;;;;;4936125;29;20188;-88
2021/11/23 19:56:43;;;;;;;42.03;21.93;;;9.60;99.90;;;;;;4919875;29;20233;-88
2021/11/23 19:59:10;;;;;;;49.23;23.13;;;9.60;99.90;;;;;;4919481;29;20183;-87
2021/11/23 20:01:36;;;;;;;48.70;22.87;;;9.70;99.90;;;;;;4916696;29;20292;-89
2021/11/23 20:04:02;;;;;;;42.30;21.70;;;9.80;99.90;;;;;;4919805;29;20184;-88
2021/11/23 20:06:30;;;;;;;49.40;23.30;;;9.90;99.90;;;;;;4919122;29;20282;-87
2021/11/23 20:08:55;;;;;;;50.03;23.37;;;9.80;99.90;;;;;;4922786;29;20183;-93
2021/11/23 20:11:21;;;;;;;55.20;27.47;;;9.70;99.90;;;;;;4922389;29;20193;-89
2021/11/23 20:13:48;;;;;;;51.20;25.27;;;9.70;99.90;;;;;;4919350;29;20219;-91
2021/11/23 20:16:15;;;;;;;54.33;26.40;;;9.70;99.90;;;;;;4920017;29;20219;-88
2021/11/23 20:18:40;;;;;;;53.70;25.53;;;9.70;99.90;;;;;;4936493;29;20192;-88
2021/11/23 20:21:08;;;;;;;49.23;26.17;;;9.60;99.90;;;;;;4919452;29;20204;-89
2021/11/23 20:23:34;;;;;;;60.13;26.97;;;9.60;99.90;;;;;;4921575;29;20901;-91
2021/11/23 20:26:00;;;;;;;58.00;28.40;;;9.60;99.90;;;;;;4919399;29;20194;-91
2021/11/23 20:28:27;;;;;;;61.40;27.20;;;9.80;99.90;;;;;;4937335;29;20191;-90
2021/11/23 20:30:54;;;;;;;55.70;27.37;;;9.80;99.90;;;;;;4923023;29;20177;-89
2021/11/23 20:33:23;;;;;;;52.90;25.20;;;9.70;99.90;;;;;;4922412;29;20222;-85
2021/11/23 20:35:50;;;;;;;58.07;28.57;;;9.60;99.90;;;;;;4923850;29;20194;-93
2021/11/23 20:38:16;;;;;;;60.63;27.60;;;9.60;99.90;;;;;;4923063;29;20671;-93
2021/11/23 20:40:44;;;;;;;57.20;26.87;;;9.60;99.90;;;;;;4923508;29;20184;-92
2021/11/23 20:43:12;;;;;;;68.93;27.70;;;9.50;99.90;;;;;;4934273;29;20231;-94
2021/11/23 20:45:40;;;;;;;66.57;28.83;;;9.50;99.90;;;;;;4921940;29;20198;-92
2021/11/23 20:48:06;;;;;;;66.63;28.70;;;9.50;99.90;;;;;;4923101;29;20195;-92
2021/11/23 20:50:33;;;;;;;67.07;29.20;;;9.50;99.90;;;;;;4921604;29;20188;-93
2021/11/23 20:53:01;;;;;;;53.20;26.67;;;9.40;99.90;;;;;;4923634;29;20551;-91
2021/11/23 20:55:29;;;;;;;60.77;26.23;;;9.60;99.90;;;;;;4921885;29;20215;-88
2021/11/23 20:57:56;;;;;;;64.53;28.13;;;9.80;99.90;;;;;;4922997;29;20271;-91
2021/11/23 21:00:27;;;;;;;74.57;29.23;;;9.90;99.90;;;;;;4939332;29;20184;-86
2021/11/23 21:02:53;;;;;;;64.30;27.87;;;9.80;99.90;;;;;;4939178;29;20723;-93
2021/11/23 21:05:19;;;;;;;63.90;27.27;;;9.70;99.90;;;;;;4922503;29;20183;-93
2021/11/23 21:07:45;;;;;;;60.17;27.33;;;9.60;99.90;;;;;;4922587;29;20194;-92
2021/11/23 21:10:11;;;;;;;55.57;26.33;;;9.50;99.90;;;;;;4926141;29;20180;-90
2021/11/23 21:12:36;;;;;;;67.53;27.17;;;9.40;99.90;;;;;;4922413;29;20198;-91
2021/11/23 21:15:03;;;;;;;61.13;27.47;;;9.50;99.90;;;;;;4925623;29;20179;-94
2021/11/23 21:17:28;;;;;;;56.20;25.73;;;9.50;99.90;;;;;;4928321;28;20223;-94
2021/11/23 21:19:54;;;;;;;54.93;26.77;;;9.40;99.90;;;;;;4939297;29;20183;-91
2021/11/23 21:22:19;;;;;;;75.87;32.60;;;9.30;99.90;;;;;;4939769;28;20293;-92
2021/11/23 21:24:45;;;;;;;75.80;33.67;;;9.30;99.90;;;;;;4924390;29;20660;-91
2021/11/23 21:27:13;;;;;;;63.50;30.23;;;9.40;99.90;;;;;;4940290;29;20198;-92
2021/11/23 21:29:39;;;;;;;63.67;28.10;;;9.40;99.90;;;;;;4922885;29;20191;-93
2021/11/23 21:32:05;;;;;;;63.00;28.53;;;9.40;99.90;;;;;;4924316;29;20211;-91
2021/11/23 21:34:30;;;;;;;64.33;32.00;;;9.50;99.90;;;;;;4919797;29;20196;-90
2021/11/23 21:36:56;;;;;;;66.07;30.27;;;9.50;99.90;;;;;;4910920;29;20212;-89
2021/11/23 21:39:22;;;;;;;79.33;29.43;;;9.50;99.90;;;;;;4929548;29;20189;-89
2021/11/23 21:41:48;;;;;;;71.23;28.73;;;9.40;99.90;;;;;;4920077;29;20639;-93
2021/11/23 21:44:19;;;;;;;69.40;29.47;;;9.40;99.90;;;;;;4920264;29;20198;-93